sensor_id;sensor_type;location;lat;lon;timestamp;P1;durP1;ratioP1;P2;durP2;ratioP2
44276;SDS011;29973;43.742;1.236;2023-02-28T00:00:22;9.05;;;5.88;;
44276;SDS011;29973;43.742;1.236;2023-02-28T00:02:48;11.27;;;6.22;;
44276;SDS011;29973;43.742;1.236;2023-02-28T00:05:16;9.20;;;5.80;;
44276;SDS011;29973;43.742;1.236;2023-02-28T00:07:43;9.50;;;6.47;;
44276;SDS011;29973;43.742;1.236;2023-02-28T00:10:11;9.98;;;6.10;;
44276;SDS011;29973;43.742;1.236;2023-02-28T00:12:38;8.50;;;6.00;;
44276;SDS011;29973;43.742;1.236;2023-02-28T00:15:05;9.93;;;6.60;;
44276;SDS011;29973;43.742;1.236;2023-02-28T00:17:32;10.80;;;6.35;;
44276;SDS011;29973;43.742;1.236;2023-02-28T00:19:59;8.82;;;6.60;;
44276;SDS011;29973;43.742;1.236;2023-02-28T00:22:28;11.25;;;6.25;;
44276;SDS011;29973;43.742;1.236;2023-02-28T00:24:54;12.07;;;6.88;;
44276;SDS011;29973;43.742;1.236;2023-02-28T00:27:19;7.13;;;5.10;;
44276;SDS011;29973;43.742;1.236;2023-02-28T00:29:46;9.68;;;5.85;;
44276;SDS011;29973;43.742;1.236;2023-02-28T00:32:12;10.63;;;6.15;;
44276;SDS011;29973;43.742;1.236;2023-02-28T00:34:38;12.40;;;7.28;;
44276;SDS011;29973;43.742;1.236;2023-02-28T00:37:08;11.27;;;6.30;;
44276;SDS011;29973;43.742;1.236;2023-02-28T00:39:35;9.98;;;6.78;;
44276;SDS011;29973;43.742;1.236;2023-02-28T00:42:02;8.60;;;5.85;;
44276;SDS011;29973;43.742;1.236;2023-02-28T00:44:28;7.10;;;5.80;;
44276;SDS011;29973;43.742;1.236;2023-02-28T00:46:54;9.10;;;5.88;;
44276;SDS011;29973;43.742;1.236;2023-02-28T00:49:21;10.40;;;6.28;;
44276;SDS011;29973;43.742;1.236;2023-02-28T00:51:48;11.23;;;5.53;;
44276;SDS011;29973;43.742;1.236;2023-02-28T00:54:14;8.25;;;6.45;;
44276;SDS011;29973;43.742;1.236;2023-02-28T00:56:40;9.70;;;6.47;;
44276;SDS011;29973;43.742;1.236;2023-02-28T00:59:06;10.38;;;6.70;;
44276;SDS011;29973;43.742;1.236;2023-02-28T01:01:32;7.00;;;5.40;;
44276;SDS011;29973;43.742;1.236;2023-02-28T01:03:57;12.77;;;6.70;;
44276;SDS011;29973;43.742;1.236;2023-02-28T01:06:23;10.07;;;6.25;;
44276;SDS011;29973;43.742;1.236;2023-02-28T01:08:49;11.05;;;7.53;;
44276;SDS011;29973;43.742;1.236;2023-02-28T01:11:15;7.95;;;5.65;;
44276;SDS011;29973;43.742;1.236;2023-02-28T01:13:42;11.88;;;6.50;;
44276;SDS011;29973;43.742;1.236;2023-02-28T01:16:09;15.48;;;7.22;;
44276;SDS011;29973;43.742;1.236;2023-02-28T01:18:35;10.85;;;8.07;;
44276;SDS011;29973;43.742;1.236;2023-02-28T01:21:08;10.57;;;7.35;;
44276;SDS011;29973;43.742;1.236;2023-02-28T01:23:36;11.13;;;7.40;;
44276;SDS011;29973;43.742;1.236;2023-02-28T01:26:08;7.13;;;4.75;;
44276;SDS011;29973;43.742;1.236;2023-02-28T01:28:37;13.68;;;7.32;;
44276;SDS011;29973;43.742;1.236;2023-02-28T01:31:03;9.32;;;6.53;;
44276;SDS011;29973;43.742;1.236;2023-02-28T01:33:28;9.70;;;6.63;;
44276;SDS011;29973;43.742;1.236;2023-02-28T01:35:58;13.93;;;6.57;;
44276;SDS011;29973;43.742;1.236;2023-02-28T01:38:25;8.53;;;7.30;;
44276;SDS011;29973;43.742;1.236;2023-02-28T01:40:51;10.45;;;7.25;;
44276;SDS011;29973;43.742;1.236;2023-02-28T01:43:27;12.50;;;6.95;;
44276;SDS011;29973;43.742;1.236;2023-02-28T01:45:56;10.05;;;6.65;;
44276;SDS011;29973;43.742;1.236;2023-02-28T01:48:25;8.68;;;6.47;;
44276;SDS011;29973;43.742;1.236;2023-02-28T01:50:52;12.57;;;7.60;;
44276;SDS011;29973;43.742;1.236;2023-02-28T01:53:22;14.63;;;8.23;;
44276;SDS011;29973;43.742;1.236;2023-02-28T01:55:55;16.60;;;8.02;;
44276;SDS011;29973;43.742;1.236;2023-02-28T01:58:21;12.50;;;7.43;;
44276;SDS011;29973;43.742;1.236;2023-02-28T02:00:48;15.48;;;7.88;;
44276;SDS011;29973;43.742;1.236;2023-02-28T02:03:14;14.07;;;6.75;;
44276;SDS011;29973;43.742;1.236;2023-02-28T02:05:46;8.27;;;6.50;;
44276;SDS011;29973;43.742;1.236;2023-02-28T02:08:13;7.28;;;5.88;;
44276;SDS011;29973;43.742;1.236;2023-02-28T02:16:07;11.60;;;6.93;;
44276;SDS011;29973;43.742;1.236;2023-02-28T02:24:22;9.27;;;6.30;;
44276;SDS011;29973;43.742;1.236;2023-02-28T02:40:37;11.30;;;7.93;;
44276;SDS011;29973;43.742;1.236;2023-02-28T02:43:25;11.88;;;7.35;;
44276;SDS011;29973;43.742;1.236;2023-02-28T02:46:02;10.52;;;6.22;;
44276;SDS011;29973;43.742;1.236;2023-02-28T02:48:33;9.68;;;6.75;;
44276;SDS011;29973;43.742;1.236;2023-02-28T02:51:03;15.63;;;6.72;;
44276;SDS011;29973;43.742;1.236;2023-02-28T02:53:38;9.48;;;6.80;;
44276;SDS011;29973;43.742;1.236;2023-02-28T02:56:14;17.73;;;7.53;;
44276;SDS011;29973;43.742;1.236;2023-02-28T02:58:43;9.32;;;6.88;;
44276;SDS011;29973;43.742;1.236;2023-02-28T03:01:12;9.25;;;7.18;;
44276;SDS011;29973;43.742;1.236;2023-02-28T03:03:54;10.10;;;7.38;;
44276;SDS011;29973;43.742;1.236;2023-02-28T03:06:32;10.60;;;7.95;;
44276;SDS011;29973;43.742;1.236;2023-02-28T03:08:57;12.23;;;8.77;;
44276;SDS011;29973;43.742;1.236;2023-02-28T03:11:25;12.00;;;7.68;;
44276;SDS011;29973;43.742;1.236;2023-02-28T03:24:07;12.85;;;7.60;;
44276;SDS011;29973;43.742;1.236;2023-02-28T03:26:43;9.52;;;6.03;;
44276;SDS011;29973;43.742;1.236;2023-02-28T03:29:16;15.38;;;7.15;;
44276;SDS011;29973;43.742;1.236;2023-02-28T03:32:29;6.65;;;5.47;;
44276;SDS011;29973;43.742;1.236;2023-02-28T03:37:40;12.52;;;7.32;;
44276;SDS011;29973;43.742;1.236;2023-02-28T03:40:13;11.60;;;6.47;;
44276;SDS011;29973;43.742;1.236;2023-02-28T03:42:43;11.93;;;7.60;;
44276;SDS011;29973;43.742;1.236;2023-02-28T03:45:30;11.35;;;7.45;;
44276;SDS011;29973;43.742;1.236;2023-02-28T03:48:01;12.10;;;7.07;;
44276;SDS011;29973;43.742;1.236;2023-02-28T03:50:36;13.13;;;7.47;;
44276;SDS011;29973;43.742;1.236;2023-02-28T03:53:07;9.38;;;6.40;;
44276;SDS011;29973;43.742;1.236;2023-02-28T03:55:40;15.65;;;7.53;;
44276;SDS011;29973;43.742;1.236;2023-02-28T03:58:26;8.60;;;6.65;;
44276;SDS011;29973;43.742;1.236;2023-02-28T04:01:09;15.52;;;7.82;;
44276;SDS011;29973;43.742;1.236;2023-02-28T04:03:36;11.35;;;7.65;;
44276;SDS011;29973;43.742;1.236;2023-02-28T04:06:03;10.82;;;7.15;;
44276;SDS011;29973;43.742;1.236;2023-02-28T04:08:32;13.23;;;7.43;;
44276;SDS011;29973;43.742;1.236;2023-02-28T04:11:05;11.52;;;6.15;;
44276;SDS011;29973;43.742;1.236;2023-02-28T04:13:43;11.35;;;6.80;;
44276;SDS011;29973;43.742;1.236;2023-02-28T04:16:09;12.25;;;7.45;;
44276;SDS011;29973;43.742;1.236;2023-02-28T04:18:38;10.13;;;7.00;;
44276;SDS011;29973;43.742;1.236;2023-02-28T04:21:05;13.55;;;7.45;;
44276;SDS011;29973;43.742;1.236;2023-02-28T04:23:31;10.63;;;7.18;;
44276;SDS011;29973;43.742;1.236;2023-02-28T04:25:58;9.85;;;6.80;;
44276;SDS011;29973;43.742;1.236;2023-02-28T04:28:24;11.45;;;8.23;;
44276;SDS011;29973;43.742;1.236;2023-02-28T04:30:56;10.45;;;6.88;;
44276;SDS011;29973;43.742;1.236;2023-02-28T04:33:23;13.25;;;8.68;;
44276;SDS011;29973;43.742;1.236;2023-02-28T04:35:57;13.05;;;8.23;;
44276;SDS011;29973;43.742;1.236;2023-02-28T04:38:27;11.68;;;7.53;;
44276;SDS011;29973;43.742;1.236;2023-02-28T04:40:56;10.45;;;6.80;;
44276;SDS011;29973;43.742;1.236;2023-02-28T04:43:22;11.98;;;7.70;;
44276;SDS011;29973;43.742;1.236;2023-02-28T04:45:48;10.55;;;7.20;;
44276;SDS011;29973;43.742;1.236;2023-02-28T04:48:14;10.23;;;7.32;;
44276;SDS011;29973;43.742;1.236;2023-02-28T04:50:40;10.77;;;7.47;;
44276;SDS011;29973;43.742;1.236;2023-02-28T04:53:06;11.77;;;8.02;;
44276;SDS011;29973;43.742;1.236;2023-02-28T04:55:31;17.00;;;8.38;;
44276;SDS011;29973;43.742;1.236;2023-02-28T04:57:57;10.48;;;7.60;;
44276;SDS011;29973;43.742;1.236;2023-02-28T05:00:22;11.45;;;7.63;;
44276;SDS011;29973;43.742;1.236;2023-02-28T05:02:48;10.43;;;7.22;;
44276;SDS011;29973;43.742;1.236;2023-02-28T05:05:14;15.50;;;8.05;;
44276;SDS011;29973;43.742;1.236;2023-02-28T05:07:43;12.40;;;8.15;;
44276;SDS011;29973;43.742;1.236;2023-02-28T05:10:09;10.98;;;7.75;;
44276;SDS011;29973;43.742;1.236;2023-02-28T05:12:36;13.27;;;7.75;;
44276;SDS011;29973;43.742;1.236;2023-02-28T05:15:02;10.38;;;7.28;;
44276;SDS011;29973;43.742;1.236;2023-02-28T05:17:30;12.70;;;8.68;;
44276;SDS011;29973;43.742;1.236;2023-02-28T05:19:56;11.68;;;8.10;;
44276;SDS011;29973;43.742;1.236;2023-02-28T05:22:22;12.77;;;8.40;;
44276;SDS011;29973;43.742;1.236;2023-02-28T05:24:47;12.57;;;8.63;;
44276;SDS011;29973;43.742;1.236;2023-02-28T05:27:13;12.45;;;8.50;;
44276;SDS011;29973;43.742;1.236;2023-02-28T05:29:39;14.10;;;8.35;;
44276;SDS011;29973;43.742;1.236;2023-02-28T05:32:09;13.55;;;8.07;;
44276;SDS011;29973;43.742;1.236;2023-02-28T05:34:36;12.15;;;7.95;;
44276;SDS011;29973;43.742;1.236;2023-02-28T05:37:12;12.98;;;8.73;;
44276;SDS011;29973;43.742;1.236;2023-02-28T05:39:38;17.63;;;9.02;;
44276;SDS011;29973;43.742;1.236;2023-02-28T05:42:04;16.38;;;8.50;;
44276;SDS011;29973;43.742;1.236;2023-02-28T05:44:30;14.77;;;9.25;;
44276;SDS011;29973;43.742;1.236;2023-02-28T05:46:55;10.85;;;7.72;;
44276;SDS011;29973;43.742;1.236;2023-02-28T05:49:21;11.27;;;7.55;;
44276;SDS011;29973;43.742;1.236;2023-02-28T05:51:47;11.23;;;8.05;;
44276;SDS011;29973;43.742;1.236;2023-02-28T05:54:13;15.07;;;9.13;;
44276;SDS011;29973;43.742;1.236;2023-02-28T05:56:39;14.07;;;9.40;;
44276;SDS011;29973;43.742;1.236;2023-02-28T05:59:06;12.43;;;9.63;;
44276;SDS011;29973;43.742;1.236;2023-02-28T06:04:00;14.02;;;9.43;;
44276;SDS011;29973;43.742;1.236;2023-02-28T06:06:27;15.35;;;9.05;;
44276;SDS011;29973;43.742;1.236;2023-02-28T06:08:53;16.65;;;9.57;;
44276;SDS011;29973;43.742;1.236;2023-02-28T06:11:19;15.65;;;10.25;;
44276;SDS011;29973;43.742;1.236;2023-02-28T06:13:45;15.85;;;10.70;;
44276;SDS011;29973;43.742;1.236;2023-02-28T06:16:11;17.27;;;10.85;;
44276;SDS011;29973;43.742;1.236;2023-02-28T06:18:38;17.05;;;10.30;;
44276;SDS011;29973;43.742;1.236;2023-02-28T06:21:04;14.15;;;9.57;;
44276;SDS011;29973;43.742;1.236;2023-02-28T06:23:33;15.23;;;10.07;;
44276;SDS011;29973;43.742;1.236;2023-02-28T06:25:59;17.13;;;9.63;;
44276;SDS011;29973;43.742;1.236;2023-02-28T06:28:25;14.43;;;9.25;;
44276;SDS011;29973;43.742;1.236;2023-02-28T06:30:51;15.25;;;9.65;;
44276;SDS011;29973;43.742;1.236;2023-02-28T06:33:17;14.55;;;9.23;;
44276;SDS011;29973;43.742;1.236;2023-02-28T06:35:43;14.65;;;9.13;;
44276;SDS011;29973;43.742;1.236;2023-02-28T06:38:11;15.98;;;9.48;;
44276;SDS011;29973;43.742;1.236;2023-02-28T06:40:37;17.80;;;10.13;;
44276;SDS011;29973;43.742;1.236;2023-02-28T06:43:03;18.65;;;10.73;;
44276;SDS011;29973;43.742;1.236;2023-02-28T06:45:32;17.30;;;9.90;;
44276;SDS011;29973;43.742;1.236;2023-02-28T06:47:58;15.90;;;9.13;;
44276;SDS011;29973;43.742;1.236;2023-02-28T06:50:25;17.83;;;10.05;;
44276;SDS011;29973;43.742;1.236;2023-02-28T06:52:52;18.73;;;10.10;;
44276;SDS011;29973;43.742;1.236;2023-02-28T06:55:20;15.35;;;9.75;;
44276;SDS011;29973;43.742;1.236;2023-02-28T06:57:46;15.68;;;9.10;;
44276;SDS011;29973;43.742;1.236;2023-02-28T07:00:12;13.57;;;7.85;;
44276;SDS011;29973;43.742;1.236;2023-02-28T07:02:38;14.77;;;8.98;;
44276;SDS011;29973;43.742;1.236;2023-02-28T07:05:04;17.73;;;9.57;;
44276;SDS011;29973;43.742;1.236;2023-02-28T07:07:31;15.00;;;9.32;;
44276;SDS011;29973;43.742;1.236;2023-02-28T07:09:57;14.75;;;9.68;;
44276;SDS011;29973;43.742;1.236;2023-02-28T07:12:23;14.40;;;9.23;;
44276;SDS011;29973;43.742;1.236;2023-02-28T07:14:49;13.85;;;9.85;;
44276;SDS011;29973;43.742;1.236;2023-02-28T07:17:15;14.05;;;8.80;;
44276;SDS011;29973;43.742;1.236;2023-02-28T07:19:41;14.50;;;10.30;;
44276;SDS011;29973;43.742;1.236;2023-02-28T07:22:12;13.57;;;9.25;;
44276;SDS011;29973;43.742;1.236;2023-02-28T07:24:37;14.95;;;9.15;;
44276;SDS011;29973;43.742;1.236;2023-02-28T07:27:06;15.45;;;8.88;;
44276;SDS011;29973;43.742;1.236;2023-02-28T07:29:32;10.88;;;8.48;;
44276;SDS011;29973;43.742;1.236;2023-02-28T07:31:58;11.40;;;8.27;;
44276;SDS011;29973;43.742;1.236;2023-02-28T07:34:24;12.73;;;8.82;;
44276;SDS011;29973;43.742;1.236;2023-02-28T07:36:53;13.32;;;8.48;;
44276;SDS011;29973;43.742;1.236;2023-02-28T07:39:22;14.93;;;9.23;;
44276;SDS011;29973;43.742;1.236;2023-02-28T07:41:48;14.93;;;8.98;;
44276;SDS011;29973;43.742;1.236;2023-02-28T07:44:13;13.65;;;9.80;;
44276;SDS011;29973;43.742;1.236;2023-02-28T07:46:39;14.70;;;7.07;;
44276;SDS011;29973;43.742;1.236;2023-02-28T07:49:11;14.38;;;9.40;;
44276;SDS011;29973;43.742;1.236;2023-02-28T07:51:37;13.55;;;9.40;;
44276;SDS011;29973;43.742;1.236;2023-02-28T07:54:03;13.18;;;8.73;;
44276;SDS011;29973;43.742;1.236;2023-02-28T07:56:29;11.65;;;7.53;;
44276;SDS011;29973;43.742;1.236;2023-02-28T07:58:57;15.77;;;8.35;;
44276;SDS011;29973;43.742;1.236;2023-02-28T08:01:24;13.63;;;8.70;;
44276;SDS011;29973;43.742;1.236;2023-02-28T08:03:49;20.73;;;9.20;;
44276;SDS011;29973;43.742;1.236;2023-02-28T08:06:16;14.10;;;8.10;;
44276;SDS011;29973;43.742;1.236;2023-02-28T08:08:45;13.70;;;8.80;;
44276;SDS011;29973;43.742;1.236;2023-02-28T08:11:14;14.15;;;9.20;;
44276;SDS011;29973;43.742;1.236;2023-02-28T08:13:43;13.13;;;8.25;;
44276;SDS011;29973;43.742;1.236;2023-02-28T08:16:11;14.50;;;8.68;;
44276;SDS011;29973;43.742;1.236;2023-02-28T08:18:46;12.07;;;7.55;;
44276;SDS011;29973;43.742;1.236;2023-02-28T08:21:12;12.95;;;9.32;;
44276;SDS011;29973;43.742;1.236;2023-02-28T08:23:38;16.75;;;8.82;;
44276;SDS011;29973;43.742;1.236;2023-02-28T08:26:04;11.30;;;8.20;;
44276;SDS011;29973;43.742;1.236;2023-02-28T08:28:31;12.50;;;7.78;;
44276;SDS011;29973;43.742;1.236;2023-02-28T08:30:57;11.63;;;7.15;;
44276;SDS011;29973;43.742;1.236;2023-02-28T08:33:23;13.10;;;7.57;;
44276;SDS011;29973;43.742;1.236;2023-02-28T08:35:55;13.52;;;8.43;;
44276;SDS011;29973;43.742;1.236;2023-02-28T08:38:27;12.02;;;8.48;;
44276;SDS011;29973;43.742;1.236;2023-02-28T08:40:57;10.52;;;8.40;;
44276;SDS011;29973;43.742;1.236;2023-02-28T08:43:24;10.90;;;8.50;;
44276;SDS011;29973;43.742;1.236;2023-02-28T08:45:54;10.18;;;6.65;;
44276;SDS011;29973;43.742;1.236;2023-02-28T08:48:24;10.82;;;7.78;;
44276;SDS011;29973;43.742;1.236;2023-02-28T08:50:56;9.45;;;6.55;;
44276;SDS011;29973;43.742;1.236;2023-02-28T08:53:23;15.15;;;8.02;;
44276;SDS011;29973;43.742;1.236;2023-02-28T08:55:55;12.60;;;7.85;;
44276;SDS011;29973;43.742;1.236;2023-02-28T08:58:28;10.30;;;7.47;;
44276;SDS011;29973;43.742;1.236;2023-02-28T09:00:54;11.48;;;8.63;;
44276;SDS011;29973;43.742;1.236;2023-02-28T09:03:21;12.63;;;7.53;;
44276;SDS011;29973;43.742;1.236;2023-02-28T09:06:00;9.85;;;6.28;;
44276;SDS011;29973;43.742;1.236;2023-02-28T09:08:28;9.18;;;6.45;;
44276;SDS011;29973;43.742;1.236;2023-02-28T09:10:57;9.30;;;7.17;;
44276;SDS011;29973;43.742;1.236;2023-02-28T09:13:27;9.05;;;7.55;;
44276;SDS011;29973;43.742;1.236;2023-02-28T09:15:53;9.77;;;6.53;;
44276;SDS011;29973;43.742;1.236;2023-02-28T09:18:22;13.95;;;7.40;;
44276;SDS011;29973;43.742;1.236;2023-02-28T09:20:47;13.88;;;7.57;;
44276;SDS011;29973;43.742;1.236;2023-02-28T09:23:17;13.23;;;6.70;;
44276;SDS011;29973;43.742;1.236;2023-02-28T09:25:47;6.68;;;5.78;;
44276;SDS011;29973;43.742;1.236;2023-02-28T09:28:15;8.70;;;6.47;;
44276;SDS011;29973;43.742;1.236;2023-02-28T09:30:49;12.18;;;7.68;;
44276;SDS011;29973;43.742;1.236;2023-02-28T09:33:20;7.68;;;4.88;;
44276;SDS011;29973;43.742;1.236;2023-02-28T09:35:47;11.60;;;7.70;;
44276;SDS011;29973;43.742;1.236;2023-02-28T09:38:18;8.00;;;5.25;;
44276;SDS011;29973;43.742;1.236;2023-02-28T09:41:00;10.60;;;7.38;;
44276;SDS011;29973;43.742;1.236;2023-02-28T09:43:38;10.20;;;7.13;;
44276;SDS011;29973;43.742;1.236;2023-02-28T09:48:57;12.52;;;7.40;;
44276;SDS011;29973;43.742;1.236;2023-02-28T09:54:20;10.57;;;5.78;;
44276;SDS011;29973;43.742;1.236;2023-02-28T09:56:59;7.70;;;5.72;;
44276;SDS011;29973;43.742;1.236;2023-02-28T09:59:50;11.02;;;7.15;;
44276;SDS011;29973;43.742;1.236;2023-02-28T10:05:30;10.75;;;8.07;;
44276;SDS011;29973;43.742;1.236;2023-02-28T10:08:13;9.68;;;6.93;;
44276;SDS011;29973;43.742;1.236;2023-02-28T10:14:12;10.30;;;7.32;;
44276;SDS011;29973;43.742;1.236;2023-02-28T10:26:49;15.05;;;6.63;;
44276;SDS011;29973;43.742;1.236;2023-02-28T10:29:32;10.25;;;7.18;;
44276;SDS011;29973;43.742;1.236;2023-02-28T10:32:15;8.77;;;6.82;;
44276;SDS011;29973;43.742;1.236;2023-02-28T10:34:44;10.73;;;7.28;;
44276;SDS011;29973;43.742;1.236;2023-02-28T10:37:16;10.75;;;6.90;;
44276;SDS011;29973;43.742;1.236;2023-02-28T10:39:43;10.50;;;6.07;;
44276;SDS011;29973;43.742;1.236;2023-02-28T10:45:25;10.23;;;6.47;;
44276;SDS011;29973;43.742;1.236;2023-02-28T10:47:54;8.00;;;6.07;;
44276;SDS011;29973;43.742;1.236;2023-02-28T10:53:45;9.45;;;6.38;;
44276;SDS011;29973;43.742;1.236;2023-02-28T10:59:52;8.05;;;6.35;;
44276;SDS011;29973;43.742;1.236;2023-02-28T11:02:57;9.27;;;5.80;;
44276;SDS011;29973;43.742;1.236;2023-02-28T11:08:12;8.55;;;6.60;;
44276;SDS011;29973;43.742;1.236;2023-02-28T11:10:44;11.70;;;6.78;;
44276;SDS011;29973;43.742;1.236;2023-02-28T11:13:20;11.75;;;6.43;;
44276;SDS011;29973;43.742;1.236;2023-02-28T11:15:53;10.15;;;6.40;;
44276;SDS011;29973;43.742;1.236;2023-02-28T11:20:55;7.35;;;5.90;;
44276;SDS011;29973;43.742;1.236;2023-02-28T11:23:23;9.30;;;6.18;;
44276;SDS011;29973;43.742;1.236;2023-02-28T11:25:52;7.68;;;5.88;;
44276;SDS011;29973;43.742;1.236;2023-02-28T11:31:08;9.98;;;5.63;;
44276;SDS011;29973;43.742;1.236;2023-02-28T11:33:49;8.82;;;6.13;;
44276;SDS011;29973;43.742;1.236;2023-02-28T11:38:53;6.90;;;5.95;;
44276;SDS011;29973;43.742;1.236;2023-02-28T11:41:47;6.65;;;5.95;;
44276;SDS011;29973;43.742;1.236;2023-02-28T11:44:16;7.60;;;5.25;;
44276;SDS011;29973;43.742;1.236;2023-02-28T11:47:04;10.55;;;6.03;;
44276;SDS011;29973;43.742;1.236;2023-02-28T11:55:24;7.57;;;5.90;;
44276;SDS011;29973;43.742;1.236;2023-02-28T11:58:04;8.85;;;6.28;;
44276;SDS011;29973;43.742;1.236;2023-02-28T12:03:36;9.52;;;6.40;;
44276;SDS011;29973;43.742;1.236;2023-02-28T12:09:12;8.77;;;6.72;;
44276;SDS011;29973;43.742;1.236;2023-02-28T12:11:52;11.68;;;6.28;;
44276;SDS011;29973;43.742;1.236;2023-02-28T12:14:25;8.98;;;6.18;;
44276;SDS011;29973;43.742;1.236;2023-02-28T12:17:46;7.40;;;5.70;;
44276;SDS011;29973;43.742;1.236;2023-02-28T12:23:18;9.45;;;5.78;;
44276;SDS011;29973;43.742;1.236;2023-02-28T12:26:07;10.88;;;6.30;;
44276;SDS011;29973;43.742;1.236;2023-02-28T12:28:38;10.60;;;6.38;;
44276;SDS011;29973;43.742;1.236;2023-02-28T12:31:17;10.43;;;5.93;;
44276;SDS011;29973;43.742;1.236;2023-02-28T12:33:49;10.38;;;5.88;;
44276;SDS011;29973;43.742;1.236;2023-02-28T12:36:18;9.73;;;5.90;;
44276;SDS011;29973;43.742;1.236;2023-02-28T12:39:01;8.43;;;5.85;;
44276;SDS011;29973;43.742;1.236;2023-02-28T12:42:03;7.25;;;5.43;;
44276;SDS011;29973;43.742;1.236;2023-02-28T12:44:44;7.22;;;5.32;;
44276;SDS011;29973;43.742;1.236;2023-02-28T12:47:19;7.15;;;5.20;;
44276;SDS011;29973;43.742;1.236;2023-02-28T12:50:07;8.75;;;5.70;;
44276;SDS011;29973;43.742;1.236;2023-02-28T12:58:18;7.03;;;4.95;;
44276;SDS011;29973;43.742;1.236;2023-02-28T13:06:31;7.28;;;4.68;;
44276;SDS011;29973;43.742;1.236;2023-02-28T13:09:21;6.32;;;5.07;;
44276;SDS011;29973;43.742;1.236;2023-02-28T13:11:48;9.00;;;5.40;;
44276;SDS011;29973;43.742;1.236;2023-02-28T13:17:21;11.00;;;7.03;;
44276;SDS011;29973;43.742;1.236;2023-02-28T13:24:54;11.00;;;6.50;;
44276;SDS011;29973;43.742;1.236;2023-02-28T13:35:45;7.13;;;5.25;;
44276;SDS011;29973;43.742;1.236;2023-02-28T13:38:53;9.00;;;5.75;;
44276;SDS011;29973;43.742;1.236;2023-02-28T13:46:30;8.93;;;5.22;;
44276;SDS011;29973;43.742;1.236;2023-02-28T13:51:46;9.70;;;4.88;;
44276;SDS011;29973;43.742;1.236;2023-02-28T13:59:45;6.10;;;4.22;;
44276;SDS011;29973;43.742;1.236;2023-02-28T14:02:23;8.75;;;5.22;;
44276;SDS011;29973;43.742;1.236;2023-02-28T14:05:19;10.38;;;5.32;;
44276;SDS011;29973;43.742;1.236;2023-02-28T14:07:57;8.93;;;5.53;;
44276;SDS011;29973;43.742;1.236;2023-02-28T14:10:26;8.43;;;5.30;;
44276;SDS011;29973;43.742;1.236;2023-02-28T14:12:59;7.85;;;4.93;;
44276;SDS011;29973;43.742;1.236;2023-02-28T14:18:02;6.65;;;5.15;;
44276;SDS011;29973;43.742;1.236;2023-02-28T14:20:36;7.47;;;5.55;;
44276;SDS011;29973;43.742;1.236;2023-02-28T14:23:15;10.05;;;6.22;;
44276;SDS011;29973;43.742;1.236;2023-02-28T14:26:02;7.82;;;5.05;;
44276;SDS011;29973;43.742;1.236;2023-02-28T14:44:00;4.68;;;3.20;;
44276;SDS011;29973;43.742;1.236;2023-02-28T14:46:34;7.78;;;5.30;;
44276;SDS011;29973;43.742;1.236;2023-02-28T14:49:03;8.32;;;5.50;;
44276;SDS011;29973;43.742;1.236;2023-02-28T14:51:32;6.53;;;4.53;;
44276;SDS011;29973;43.742;1.236;2023-02-28T14:53:59;7.60;;;4.80;;
44276;SDS011;29973;43.742;1.236;2023-02-28T14:56:33;7.35;;;5.53;;
44276;SDS011;29973;43.742;1.236;2023-02-28T14:59:02;7.97;;;5.00;;
44276;SDS011;29973;43.742;1.236;2023-02-28T15:01:29;7.35;;;4.55;;
44276;SDS011;29973;43.742;1.236;2023-02-28T15:04:04;6.85;;;4.88;;
44276;SDS011;29973;43.742;1.236;2023-02-28T15:06:31;7.30;;;5.68;;
44276;SDS011;29973;43.742;1.236;2023-02-28T15:09:16;6.25;;;4.47;;
44276;SDS011;29973;43.742;1.236;2023-02-28T15:11:47;6.10;;;4.80;;
44276;SDS011;29973;43.742;1.236;2023-02-28T15:14:19;6.82;;;5.10;;
44276;SDS011;29973;43.742;1.236;2023-02-28T15:19:17;8.25;;;5.15;;
44276;SDS011;29973;43.742;1.236;2023-02-28T15:21:51;11.45;;;5.22;;
44276;SDS011;29973;43.742;1.236;2023-02-28T15:24:30;8.07;;;6.00;;
44276;SDS011;29973;43.742;1.236;2023-02-28T15:27:04;14.32;;;5.20;;
44276;SDS011;29973;43.742;1.236;2023-02-28T15:29:42;8.63;;;5.15;;
44276;SDS011;29973;43.742;1.236;2023-02-28T15:32:21;7.75;;;5.43;;
44276;SDS011;29973;43.742;1.236;2023-02-28T15:34:59;8.70;;;5.20;;
44276;SDS011;29973;43.742;1.236;2023-02-28T15:40:51;7.00;;;4.82;;
44276;SDS011;29973;43.742;1.236;2023-02-28T15:43:26;8.70;;;4.88;;
44276;SDS011;29973;43.742;1.236;2023-02-28T15:45:56;8.52;;;5.15;;
44276;SDS011;29973;43.742;1.236;2023-02-28T15:48:24;7.20;;;5.07;;
44276;SDS011;29973;43.742;1.236;2023-02-28T15:51:09;8.02;;;4.65;;
44276;SDS011;29973;43.742;1.236;2023-02-28T15:53:56;7.20;;;5.55;;
44276;SDS011;29973;43.742;1.236;2023-02-28T15:56:25;6.38;;;5.47;;
44276;SDS011;29973;43.742;1.236;2023-02-28T15:58:53;8.35;;;5.20;;
44276;SDS011;29973;43.742;1.236;2023-02-28T16:03:57;7.10;;;4.75;;
44276;SDS011;29973;43.742;1.236;2023-02-28T16:09:05;8.38;;;4.75;;
44276;SDS011;29973;43.742;1.236;2023-02-28T16:11:34;6.57;;;4.85;;
44276;SDS011;29973;43.742;1.236;2023-02-28T16:14:03;8.23;;;4.80;;
44276;SDS011;29973;43.742;1.236;2023-02-28T16:16:29;8.48;;;6.03;;
44276;SDS011;29973;43.742;1.236;2023-02-28T16:18:57;9.35;;;5.07;;
44276;SDS011;29973;43.742;1.236;2023-02-28T16:21:23;6.68;;;4.68;;
44276;SDS011;29973;43.742;1.236;2023-02-28T16:23:50;7.72;;;5.75;;
44276;SDS011;29973;43.742;1.236;2023-02-28T16:26:20;8.23;;;5.30;;
44276;SDS011;29973;43.742;1.236;2023-02-28T16:28:48;8.45;;;5.53;;
44276;SDS011;29973;43.742;1.236;2023-02-28T16:31:16;8.57;;;5.50;;
44276;SDS011;29973;43.742;1.236;2023-02-28T16:33:43;7.80;;;5.13;;
44276;SDS011;29973;43.742;1.236;2023-02-28T16:36:17;8.35;;;5.32;;
44276;SDS011;29973;43.742;1.236;2023-02-28T16:38:50;8.38;;;5.70;;
44276;SDS011;29973;43.742;1.236;2023-02-28T16:41:17;11.32;;;5.43;;
44276;SDS011;29973;43.742;1.236;2023-02-28T16:43:46;7.63;;;5.63;;
44276;SDS011;29973;43.742;1.236;2023-02-28T16:46:13;18.35;;;10.35;;
44276;SDS011;29973;43.742;1.236;2023-02-28T16:48:39;8.00;;;5.50;;
44276;SDS011;29973;43.742;1.236;2023-02-28T16:51:06;12.45;;;6.13;;
44276;SDS011;29973;43.742;1.236;2023-02-28T16:53:38;10.85;;;6.25;;
44276;SDS011;29973;43.742;1.236;2023-02-28T16:56:04;8.40;;;5.93;;
44276;SDS011;29973;43.742;1.236;2023-02-28T16:58:32;24.95;;;15.57;;
44276;SDS011;29973;43.742;1.236;2023-02-28T17:01:00;10.82;;;6.15;;
44276;SDS011;29973;43.742;1.236;2023-02-28T17:03:27;9.00;;;5.78;;
44276;SDS011;29973;43.742;1.236;2023-02-28T17:05:54;6.40;;;5.53;;
44276;SDS011;29973;43.742;1.236;2023-02-28T17:08:20;8.40;;;5.30;;
44276;SDS011;29973;43.742;1.236;2023-02-28T17:10:46;10.27;;;6.25;;
44276;SDS011;29973;43.742;1.236;2023-02-28T17:13:11;7.43;;;4.75;;
44276;SDS011;29973;43.742;1.236;2023-02-28T17:15:37;10.85;;;5.85;;
44276;SDS011;29973;43.742;1.236;2023-02-28T17:18:04;7.80;;;5.45;;
44276;SDS011;29973;43.742;1.236;2023-02-28T17:20:30;10.98;;;6.55;;
44276;SDS011;29973;43.742;1.236;2023-02-28T17:22:57;18.42;;;9.90;;
44276;SDS011;29973;43.742;1.236;2023-02-28T17:25:23;9.38;;;6.05;;
44276;SDS011;29973;43.742;1.236;2023-02-28T17:27:50;15.75;;;9.55;;
44276;SDS011;29973;43.742;1.236;2023-02-28T17:30:20;15.45;;;8.48;;
44276;SDS011;29973;43.742;1.236;2023-02-28T17:32:48;14.50;;;8.50;;
44276;SDS011;29973;43.742;1.236;2023-02-28T17:35:14;13.45;;;7.28;;
44276;SDS011;29973;43.742;1.236;2023-02-28T17:37:43;8.75;;;6.07;;
44276;SDS011;29973;43.742;1.236;2023-02-28T17:40:12;9.77;;;5.93;;
44276;SDS011;29973;43.742;1.236;2023-02-28T17:42:40;7.95;;;5.25;;
44276;SDS011;29973;43.742;1.236;2023-02-28T17:45:09;8.50;;;5.93;;